sensor_id;sensor_type;location;lat;lon;timestamp;P1;durP1;ratioP1;P2;durP2;ratioP2
16282;SDS011;8249;48.708;9.030;2023-06-04T00:02:07;587.80;;;556.73;;
16282;SDS011;8249;48.708;9.030;2023-06-04T00:04:35;552.97;;;525.00;;
16282;SDS011;8249;48.708;9.030;2023-06-04T00:07:02;584.10;;;553.93;;
16282;SDS011;8249;48.708;9.030;2023-06-04T00:09:29;556.20;;;527.10;;
16282;SDS011;8249;48.708;9.030;2023-06-04T00:11:56;557.20;;;528.43;;
16282;SDS011;8249;48.708;9.030;2023-06-04T00:14:23;560.87;;;532.40;;
16282;SDS011;8249;48.708;9.030;2023-06-04T00:16:50;559.43;;;531.00;;
16282;SDS011;8249;48.708;9.030;2023-06-04T00:19:17;519.43;;;493.57;;
16282;SDS011;8249;48.708;9.030;2023-06-04T00:21:46;557.60;;;530.03;;
16282;SDS011;8249;48.708;9.030;2023-06-04T00:24:13;552.83;;;525.27;;
16282;SDS011;8249;48.708;9.030;2023-06-04T00:26:40;608.67;;;576.57;;
16282;SDS011;8249;48.708;9.030;2023-06-04T00:29:06;605.77;;;573.83;;
16282;SDS011;8249;48.708;9.030;2023-06-04T00:31:33;610.67;;;578.33;;
16282;SDS011;8249;48.708;9.030;2023-06-04T00:34:00;602.57;;;570.73;;
16282;SDS011;8249;48.708;9.030;2023-06-04T00:36:27;585.77;;;556.33;;
16282;SDS011;8249;48.708;9.030;2023-06-04T00:38:56;561.33;;;532.53;;
16282;SDS011;8249;48.708;9.030;2023-06-04T00:41:23;523.57;;;498.17;;
16282;SDS011;8249;48.708;9.030;2023-06-04T00:43:50;574.17;;;545.07;;
16282;SDS011;8249;48.708;9.030;2023-06-04T00:46:21;515.97;;;490.40;;
16282;SDS011;8249;48.708;9.030;2023-06-04T00:48:50;550.23;;;522.90;;
16282;SDS011;8249;48.708;9.030;2023-06-04T00:51:18;543.37;;;516.27;;
16282;SDS011;8249;48.708;9.030;2023-06-04T00:53:45;544.23;;;517.13;;
16282;SDS011;8249;48.708;9.030;2023-06-04T00:56:14;501.03;;;475.67;;
16282;SDS011;8249;48.708;9.030;2023-06-04T00:58:41;519.53;;;493.70;;
16282;SDS011;8249;48.708;9.030;2023-06-04T01:01:26;507.87;;;482.03;;
16282;SDS011;8249;48.708;9.030;2023-06-04T01:03:57;537.47;;;510.37;;
16282;SDS011;8249;48.708;9.030;2023-06-04T01:06:30;517.73;;;491.90;;
16282;SDS011;8249;48.708;9.030;2023-06-04T01:09:01;470.37;;;446.50;;
16282;SDS011;8249;48.708;9.030;2023-06-04T01:11:34;502.20;;;476.53;;
16282;SDS011;8249;48.708;9.030;2023-06-04T01:14:02;485.17;;;460.57;;
16282;SDS011;8249;48.708;9.030;2023-06-04T01:16:32;518.20;;;491.93;;
16282;SDS011;8249;48.708;9.030;2023-06-04T01:19:09;541.33;;;514.20;;
16282;SDS011;8249;48.708;9.030;2023-06-04T01:21:55;570.23;;;541.17;;
16282;SDS011;8249;48.708;9.030;2023-06-04T01:24:28;553.30;;;525.43;;
16282;SDS011;8249;48.708;9.030;2023-06-04T01:27:03;528.97;;;502.13;;
16282;SDS011;8249;48.708;9.030;2023-06-04T01:29:31;565.33;;;536.90;;
16282;SDS011;8249;48.708;9.030;2023-06-04T01:31:58;539.53;;;511.53;;
16282;SDS011;8249;48.708;9.030;2023-06-04T01:34:26;567.70;;;538.97;;
16282;SDS011;8249;48.708;9.030;2023-06-04T01:36:52;527.23;;;500.67;;
16282;SDS011;8249;48.708;9.030;2023-06-04T01:39:19;501.93;;;476.77;;
16282;SDS011;8249;48.708;9.030;2023-06-04T01:41:46;500.53;;;476.00;;
16282;SDS011;8249;48.708;9.030;2023-06-04T01:44:15;541.53;;;514.93;;
16282;SDS011;8249;48.708;9.030;2023-06-04T01:46:41;513.77;;;488.17;;
16282;SDS011;8249;48.708;9.030;2023-06-04T01:49:08;495.07;;;470.17;;
16282;SDS011;8249;48.708;9.030;2023-06-04T01:51:35;584.37;;;554.37;;
16282;SDS011;8249;48.708;9.030;2023-06-04T01:54:03;581.90;;;551.97;;
16282;SDS011;8249;48.708;9.030;2023-06-04T01:56:29;579.37;;;549.93;;
16282;SDS011;8249;48.708;9.030;2023-06-04T01:58:57;538.23;;;511.17;;
16282;SDS011;8249;48.708;9.030;2023-06-04T02:01:25;530.03;;;502.77;;
16282;SDS011;8249;48.708;9.030;2023-06-04T02:03:52;527.03;;;500.87;;
16282;SDS011;8249;48.708;9.030;2023-06-04T02:06:19;492.10;;;467.30;;
16282;SDS011;8249;48.708;9.030;2023-06-04T02:08:46;476.57;;;452.77;;
16282;SDS011;8249;48.708;9.030;2023-06-04T02:11:13;532.93;;;506.23;;
16282;SDS011;8249;48.708;9.030;2023-06-04T02:13:40;462.60;;;439.03;;
16282;SDS011;8249;48.708;9.030;2023-06-04T02:16:07;423.77;;;402.27;;
16282;SDS011;8249;48.708;9.030;2023-06-04T02:18:36;505.23;;;479.63;;
16282;SDS011;8249;48.708;9.030;2023-06-04T02:21:03;436.20;;;413.70;;
16282;SDS011;8249;48.708;9.030;2023-06-04T02:23:30;479.93;;;455.87;;
16282;SDS011;8249;48.708;9.030;2023-06-04T02:25:57;516.93;;;490.97;;
16282;SDS011;8249;48.708;9.030;2023-06-04T02:28:24;482.57;;;458.33;;
16282;SDS011;8249;48.708;9.030;2023-06-04T02:30:51;435.03;;;413.23;;
16282;SDS011;8249;48.708;9.030;2023-06-04T02:33:18;544.23;;;516.37;;
16282;SDS011;8249;48.708;9.030;2023-06-04T02:35:47;547.43;;;519.67;;
16282;SDS011;8249;48.708;9.030;2023-06-04T02:38:14;386.77;;;367.33;;
16282;SDS011;8249;48.708;9.030;2023-06-04T02:40:42;375.33;;;356.90;;
16282;SDS011;8249;48.708;9.030;2023-06-04T02:43:10;392.13;;;372.00;;
16282;SDS011;8249;48.708;9.030;2023-06-04T02:45:37;436.87;;;414.77;;
16282;SDS011;8249;48.708;9.030;2023-06-04T02:48:04;459.17;;;436.60;;
16282;SDS011;8249;48.708;9.030;2023-06-04T02:50:32;449.70;;;426.83;;
16282;SDS011;8249;48.708;9.030;2023-06-04T02:53:00;423.80;;;402.87;;
16282;SDS011;8249;48.708;9.030;2023-06-04T02:55:27;448.60;;;426.07;;
16282;SDS011;8249;48.708;9.030;2023-06-04T02:57:54;417.47;;;396.67;;
16282;SDS011;8249;48.708;9.030;2023-06-04T03:00:21;375.10;;;356.33;;
16282;SDS011;8249;48.708;9.030;2023-06-04T03:02:48;324.70;;;308.40;;
16282;SDS011;8249;48.708;9.030;2023-06-04T03:05:15;347.50;;;330.47;;
16282;SDS011;8249;48.708;9.030;2023-06-04T03:07:43;430.23;;;409.03;;
16282;SDS011;8249;48.708;9.030;2023-06-04T03:10:13;421.77;;;400.33;;
16282;SDS011;8249;48.708;9.030;2023-06-04T03:12:40;512.00;;;486.70;;
16282;SDS011;8249;48.708;9.030;2023-06-04T03:15:08;384.87;;;365.03;;
16282;SDS011;8249;48.708;9.030;2023-06-04T03:17:35;392.97;;;372.93;;
16282;SDS011;8249;48.708;9.030;2023-06-04T03:20:02;329.57;;;312.73;;
16282;SDS011;8249;48.708;9.030;2023-06-04T03:22:32;320.73;;;304.30;;
16282;SDS011;8249;48.708;9.030;2023-06-04T03:25:01;325.60;;;308.73;;
16282;SDS011;8249;48.708;9.030;2023-06-04T03:27:29;399.60;;;379.53;;
16282;SDS011;8249;48.708;9.030;2023-06-04T03:29:57;406.63;;;386.20;;
16282;SDS011;8249;48.708;9.030;2023-06-04T03:32:24;557.83;;;530.37;;
16282;SDS011;8249;48.708;9.030;2023-06-04T03:34:51;574.27;;;545.43;;
16282;SDS011;8249;48.708;9.030;2023-06-04T03:37:18;545.83;;;518.83;;
16282;SDS011;8249;48.708;9.030;2023-06-04T03:39:45;566.47;;;537.30;;
16282;SDS011;8249;48.708;9.030;2023-06-04T03:42:15;509.97;;;484.50;;
16282;SDS011;8249;48.708;9.030;2023-06-04T03:44:44;529.47;;;502.80;;
16282;SDS011;8249;48.708;9.030;2023-06-04T03:47:12;534.10;;;507.57;;
16282;SDS011;8249;48.708;9.030;2023-06-04T03:49:40;576.50;;;547.63;;
16282;SDS011;8249;48.708;9.030;2023-06-04T03:52:07;544.67;;;517.47;;
16282;SDS011;8249;48.708;9.030;2023-06-04T03:54:35;579.87;;;549.97;;
16282;SDS011;8249;48.708;9.030;2023-06-04T03:57:02;599.70;;;568.93;;
16282;SDS011;8249;48.708;9.030;2023-06-04T03:59:29;581.57;;;551.57;;
16282;SDS011;8249;48.708;9.030;2023-06-04T04:01:58;589.37;;;559.37;;
16282;SDS011;8249;48.708;9.030;2023-06-04T04:04:27;582.57;;;552.57;;
16282;SDS011;8249;48.708;9.030;2023-06-04T04:06:54;576.97;;;547.37;;
16282;SDS011;8249;48.708;9.030;2023-06-04T04:09:21;603.57;;;572.33;;
16282;SDS011;8249;48.708;9.030;2023-06-04T04:11:48;585.73;;;555.83;;
16282;SDS011;8249;48.708;9.030;2023-06-04T04:14:15;581.03;;;551.97;;
16282;SDS011;8249;48.708;9.030;2023-06-04T04:16:42;595.33;;;565.27;;
16282;SDS011;8249;48.708;9.030;2023-06-04T04:19:11;574.27;;;545.03;;
16282;SDS011;8249;48.708;9.030;2023-06-04T04:21:38;553.00;;;525.20;;
16282;SDS011;8249;48.708;9.030;2023-06-04T04:24:06;558.67;;;530.50;;
16282;SDS011;8249;48.708;9.030;2023-06-04T04:26:34;585.17;;;555.63;;
16282;SDS011;8249;48.708;9.030;2023-06-04T04:29:01;593.77;;;563.40;;
16282;SDS011;8249;48.708;9.030;2023-06-04T04:31:30;596.13;;;564.90;;
16282;SDS011;8249;48.708;9.030;2023-06-04T04:34:01;590.00;;;559.33;;
16282;SDS011;8249;48.708;9.030;2023-06-04T04:36:35;594.27;;;563.27;;
16282;SDS011;8249;48.708;9.030;2023-06-04T04:39:06;588.43;;;559.17;;
16282;SDS011;8249;48.708;9.030;2023-06-04T04:41:34;572.00;;;543.40;;
16282;SDS011;8249;48.708;9.030;2023-06-04T04:44:02;571.47;;;543.07;;
16282;SDS011;8249;48.708;9.030;2023-06-04T04:46:29;536.80;;;510.03;;
16282;SDS011;8249;48.708;9.030;2023-06-04T04:48:56;577.80;;;547.93;;
16282;SDS011;8249;48.708;9.030;2023-06-04T04:51:23;583.93;;;553.70;;
16282;SDS011;8249;48.708;9.030;2023-06-04T04:53:52;588.20;;;557.83;;
16282;SDS011;8249;48.708;9.030;2023-06-04T04:56:20;522.60;;;496.10;;
16282;SDS011;8249;48.708;9.030;2023-06-04T04:58:49;411.83;;;392.70;;
16282;SDS011;8249;48.708;9.030;2023-06-04T05:01:16;164.70;;;157.13;;
16282;SDS011;8249;48.708;9.030;2023-06-04T05:03:43;183.80;;;175.60;;
16282;SDS011;8249;48.708;9.030;2023-06-04T05:06:13;168.07;;;160.43;;
16282;SDS011;8249;48.708;9.030;2023-06-04T05:08:40;209.50;;;200.13;;
16282;SDS011;8249;48.708;9.030;2023-06-04T05:11:09;192.87;;;184.37;;
16282;SDS011;8249;48.708;9.030;2023-06-04T05:13:37;235.20;;;224.80;;
16282;SDS011;8249;48.708;9.030;2023-06-04T05:16:07;116.93;;;111.73;;
16282;SDS011;8249;48.708;9.030;2023-06-04T05:18:37;96.53;;;92.27;;
16282;SDS011;8249;48.708;9.030;2023-06-04T05:21:06;243.47;;;232.63;;
16282;SDS011;8249;48.708;9.030;2023-06-04T05:23:38;286.60;;;273.73;;
16282;SDS011;8249;48.708;9.030;2023-06-04T05:26:06;422.17;;;401.47;;
16282;SDS011;8249;48.708;9.030;2023-06-04T05:28:35;364.43;;;347.70;;
16282;SDS011;8249;48.708;9.030;2023-06-04T05:31:04;507.47;;;482.70;;
16282;SDS011;8249;48.708;9.030;2023-06-04T05:33:34;360.80;;;344.03;;
16282;SDS011;8249;48.708;9.030;2023-06-04T05:36:06;218.77;;;209.17;;
16282;SDS011;8249;48.708;9.030;2023-06-04T05:38:40;145.80;;;139.30;;
16282;SDS011;8249;48.708;9.030;2023-06-04T05:41:10;124.73;;;119.37;;
16282;SDS011;8249;48.708;9.030;2023-06-04T05:43:40;206.50;;;197.60;;
16282;SDS011;8249;48.708;9.030;2023-06-04T05:46:10;230.27;;;220.17;;
16282;SDS011;8249;48.708;9.030;2023-06-04T05:48:39;231.87;;;221.97;;
16282;SDS011;8249;48.708;9.030;2023-06-04T05:51:06;172.70;;;165.20;;
16282;SDS011;8249;48.708;9.030;2023-06-04T05:53:34;236.60;;;226.53;;
16282;SDS011;8249;48.708;9.030;2023-06-04T05:56:01;350.57;;;335.60;;
16282;SDS011;8249;48.708;9.030;2023-06-04T05:58:29;229.10;;;219.40;;
16282;SDS011;8249;48.708;9.030;2023-06-04T06:00:57;149.73;;;143.30;;
16282;SDS011;8249;48.708;9.030;2023-06-04T06:03:24;132.67;;;126.97;;
16282;SDS011;8249;48.708;9.030;2023-06-04T06:05:52;204.77;;;196.00;;
16282;SDS011;8249;48.708;9.030;2023-06-04T06:08:20;123.07;;;117.73;;
16282;SDS011;8249;48.708;9.030;2023-06-04T06:10:47;198.73;;;190.03;;
16282;SDS011;8249;48.708;9.030;2023-06-04T06:13:15;234.57;;;224.70;;
16282;SDS011;8249;48.708;9.030;2023-06-04T06:15:42;211.93;;;202.90;;
16282;SDS011;8249;48.708;9.030;2023-06-04T06:18:10;118.73;;;113.50;;
16282;SDS011;8249;48.708;9.030;2023-06-04T06:20:37;64.00;;;61.30;;
16282;SDS011;8249;48.708;9.030;2023-06-04T06:23:05;79.47;;;76.07;;
16282;SDS011;8249;48.708;9.030;2023-06-04T06:25:32;106.37;;;101.87;;
16282;SDS011;8249;48.708;9.030;2023-06-04T06:28:08;91.93;;;87.97;;
16282;SDS011;8249;48.708;9.030;2023-06-04T06:30:36;56.03;;;53.63;;
16282;SDS011;8249;48.708;9.030;2023-06-04T06:33:03;127.67;;;121.83;;
16282;SDS011;8249;48.708;9.030;2023-06-04T06:35:31;92.07;;;87.93;;
16282;SDS011;8249;48.708;9.030;2023-06-04T06:37:58;107.77;;;103.17;;
16282;SDS011;8249;48.708;9.030;2023-06-04T06:40:25;111.93;;;107.20;;
16282;SDS011;8249;48.708;9.030;2023-06-04T06:42:52;100.47;;;95.97;;
16282;SDS011;8249;48.708;9.030;2023-06-04T06:45:19;70.23;;;67.17;;
16282;SDS011;8249;48.708;9.030;2023-06-04T06:47:46;81.70;;;78.17;;
16282;SDS011;8249;48.708;9.030;2023-06-04T06:50:13;79.23;;;75.83;;
16282;SDS011;8249;48.708;9.030;2023-06-04T06:52:41;122.73;;;117.53;;
16282;SDS011;8249;48.708;9.030;2023-06-04T06:55:08;100.30;;;96.10;;
16282;SDS011;8249;48.708;9.030;2023-06-04T06:57:35;71.37;;;68.27;;
16282;SDS011;8249;48.708;9.030;2023-06-04T07:00:02;78.20;;;74.90;;
16282;SDS011;8249;48.708;9.030;2023-06-04T07:02:31;100.07;;;95.77;;
16282;SDS011;8249;48.708;9.030;2023-06-04T07:04:58;77.87;;;74.43;;
16282;SDS011;8249;48.708;9.030;2023-06-04T07:07:25;101.27;;;96.97;;
16282;SDS011;8249;48.708;9.030;2023-06-04T07:09:53;93.63;;;89.63;;
16282;SDS011;8249;48.708;9.030;2023-06-04T07:12:21;115.50;;;110.50;;
16282;SDS011;8249;48.708;9.030;2023-06-04T07:14:48;49.83;;;47.63;;
16282;SDS011;8249;48.708;9.030;2023-06-04T07:17:15;100.77;;;96.47;;
16282;SDS011;8249;48.708;9.030;2023-06-04T07:19:41;86.83;;;83.10;;
16282;SDS011;8249;48.708;9.030;2023-06-04T07:22:08;91.50;;;86.90;;
16282;SDS011;8249;48.708;9.030;2023-06-04T07:24:35;54.00;;;51.73;;
16282;SDS011;8249;48.708;9.030;2023-06-04T07:27:09;109.07;;;104.37;;
16282;SDS011;8249;48.708;9.030;2023-06-04T07:29:36;122.73;;;117.53;;
16282;SDS011;8249;48.708;9.030;2023-06-04T07:32:04;71.40;;;68.20;;
16282;SDS011;8249;48.708;9.030;2023-06-04T07:34:31;66.07;;;62.83;;
16282;SDS011;8249;48.708;9.030;2023-06-04T07:36:58;90.73;;;86.60;;
16282;SDS011;8249;48.708;9.030;2023-06-04T07:39:25;103.73;;;99.17;;
16282;SDS011;8249;48.708;9.030;2023-06-04T07:41:52;91.17;;;87.07;;
16282;SDS011;8249;48.708;9.030;2023-06-04T07:44:20;137.67;;;131.27;;
16282;SDS011;8249;48.708;9.030;2023-06-04T07:46:47;96.40;;;92.20;;
16282;SDS011;8249;48.708;9.030;2023-06-04T07:49:14;97.43;;;93.17;;
16282;SDS011;8249;48.708;9.030;2023-06-04T07:51:41;96.40;;;92.10;;
16282;SDS011;8249;48.708;9.030;2023-06-04T07:54:08;100.63;;;96.18;;
16282;SDS011;8249;48.708;9.030;2023-06-04T07:56:35;129.95;;;124.22;;
16282;SDS011;8249;48.708;9.030;2023-06-04T07:59:02;70.87;;;67.67;;
16282;SDS011;8249;48.708;9.030;2023-06-04T08:01:30;83.15;;;79.53;;
16282;SDS011;8249;48.708;9.030;2023-06-04T08:03:57;64.97;;;62.15;;
16282;SDS011;8249;48.708;9.030;2023-06-04T08:06:25;65.15;;;62.35;;
16282;SDS011;8249;48.708;9.030;2023-06-04T08:08:52;36.03;;;34.53;;
16282;SDS011;8249;48.708;9.030;2023-06-04T08:11:19;47.65;;;45.63;;
16282;SDS011;8249;48.708;9.030;2023-06-04T08:13:47;98.95;;;94.75;;
16282;SDS011;8249;48.708;9.030;2023-06-04T08:16:15;38.08;;;36.35;;
16282;SDS011;8249;48.708;9.030;2023-06-04T08:18:43;41.03;;;39.28;;
16282;SDS011;8249;48.708;9.030;2023-06-04T08:21:10;101.53;;;97.28;;
16282;SDS011;8249;48.708;9.030;2023-06-04T08:23:37;69.65;;;66.72;;
16282;SDS011;8249;48.708;9.030;2023-06-04T08:26:04;73.90;;;70.80;;
16282;SDS011;8249;48.708;9.030;2023-06-04T08:28:33;90.45;;;86.50;;
16282;SDS011;8249;48.708;9.030;2023-06-04T08:31:00;79.43;;;75.93;;
16282;SDS011;8249;48.708;9.030;2023-06-04T08:33:27;47.28;;;45.22;;
16282;SDS011;8249;48.708;9.030;2023-06-04T08:35:55;43.63;;;41.72;;
16282;SDS011;8249;48.708;9.030;2023-06-04T08:38:22;58.22;;;55.78;;
16282;SDS011;8249;48.708;9.030;2023-06-04T08:40:49;52.92;;;50.65;;
16282;SDS011;8249;48.708;9.030;2023-06-04T08:43:19;69.32;;;66.38;;
16282;SDS011;8249;48.708;9.030;2023-06-04T08:45:48;55.50;;;53.15;;
16282;SDS011;8249;48.708;9.030;2023-06-04T08:48:16;51.17;;;49.00;;
16282;SDS011;8249;48.708;9.030;2023-06-04T08:50:46;43.65;;;41.78;;
16282;SDS011;8249;48.708;9.030;2023-06-04T08:53:16;64.63;;;61.80;;
16282;SDS011;8249;48.708;9.030;2023-06-04T08:55:44;69.05;;;66.07;;
16282;SDS011;8249;48.708;9.030;2023-06-04T08:58:12;68.25;;;65.40;;
16282;SDS011;8249;48.708;9.030;2023-06-04T09:00:40;67.45;;;64.45;;
16282;SDS011;8249;48.708;9.030;2023-06-04T09:03:07;38.47;;;36.88;;
16282;SDS011;8249;48.708;9.030;2023-06-04T09:05:36;44.42;;;42.53;;
16282;SDS011;8249;48.708;9.030;2023-06-04T09:08:04;33.03;;;31.63;;
16282;SDS011;8249;48.708;9.030;2023-06-04T09:10:34;29.85;;;28.65;;
16282;SDS011;8249;48.708;9.030;2023-06-04T09:13:04;38.13;;;36.53;;
16282;SDS011;8249;48.708;9.030;2023-06-04T09:15:34;38.35;;;36.53;;
16282;SDS011;8249;48.708;9.030;2023-06-04T09:18:01;40.40;;;38.60;;
16282;SDS011;8249;48.708;9.030;2023-06-04T09:20:28;37.13;;;35.63;;
16282;SDS011;8249;48.708;9.030;2023-06-04T09:22:55;38.67;;;37.08;;
16282;SDS011;8249;48.708;9.030;2023-06-04T09:25:24;39.05;;;37.45;;
16282;SDS011;8249;48.708;9.030;2023-06-04T09:27:54;47.38;;;45.38;;
16282;SDS011;8249;48.708;9.030;2023-06-04T09:30:23;47.65;;;45.65;;
16282;SDS011;8249;48.708;9.030;2023-06-04T09:32:50;45.50;;;43.58;;
16282;SDS011;8249;48.708;9.030;2023-06-04T09:35:18;46.97;;;44.97;;
16282;SDS011;8249;48.708;9.030;2023-06-04T09:37:51;42.20;;;40.47;;
16282;SDS011;8249;48.708;9.030;2023-06-04T09:40:19;43.63;;;41.78;;
16282;SDS011;8249;48.708;9.030;2023-06-04T09:42:46;57.35;;;54.80;;
16282;SDS011;8249;48.708;9.030;2023-06-04T09:45:27;42.30;;;40.42;;
16282;SDS011;8249;48.708;9.030;2023-06-04T09:47:56;46.65;;;44.65;;
16282;SDS011;8249;48.708;9.030;2023-06-04T09:50:26;36.15;;;34.65;;
16282;SDS011;8249;48.708;9.030;2023-06-04T09:52:57;27.63;;;26.52;;
16282;SDS011;8249;48.708;9.030;2023-06-04T09:55:24;22.88;;;21.98;;
16282;SDS011;8249;48.708;9.030;2023-06-04T09:57:52;24.75;;;23.70;;
16282;SDS011;8249;48.708;9.030;2023-06-04T10:00:19;23.13;;;22.23;;
16282;SDS011;8249;48.708;9.030;2023-06-04T10:02:50;26.15;;;24.95;;
16282;SDS011;8249;48.708;9.030;2023-06-04T10:05:22;22.20;;;21.30;;
16282;SDS011;8249;48.708;9.030;2023-06-04T10:07:51;23.33;;;22.33;;
16282;SDS011;8249;48.708;9.030;2023-06-04T10:10:19;22.95;;;22.05;;
16282;SDS011;8249;48.708;9.030;2023-06-04T10:12:48;26.60;;;25.50;;
16282;SDS011;8249;48.708;9.030;2023-06-04T10:15:18;30.60;;;29.30;;
16282;SDS011;8249;48.708;9.030;2023-06-04T10:17:47;30.75;;;29.55;;
16282;SDS011;8249;48.708;9.030;2023-06-04T10:20:16;29.50;;;28.30;;
16282;SDS011;8249;48.708;9.030;2023-06-04T10:22:45;31.88;;;30.58;;
16282;SDS011;8249;48.708;9.030;2023-06-04T10:25:15;33.42;;;32.03;;
16282;SDS011;8249;48.708;9.030;2023-06-04T10:27:44;31.08;;;29.77;;
16282;SDS011;8249;48.708;9.030;2023-06-04T10:30:12;32.45;;;31.08;;
16282;SDS011;8249;48.708;9.030;2023-06-04T10:32:40;34.45;;;32.95;;
16282;SDS011;8249;48.708;9.030;2023-06-04T10:35:07;33.60;;;32.10;;
16282;SDS011;8249;48.708;9.030;2023-06-04T10:37:36;41.83;;;40.03;;
16282;SDS011;8249;48.708;9.030;2023-06-04T10:40:03;44.80;;;42.90;;
16282;SDS011;8249;48.708;9.030;2023-06-04T10:42:37;42.05;;;40.30;;
16282;SDS011;8249;48.708;9.030;2023-06-04T10:45:06;51.38;;;49.17;;
16282;SDS011;8249;48.708;9.030;2023-06-04T10:47:35;55.58;;;53.08;;
16282;SDS011;8249;48.708;9.030;2023-06-04T10:50:08;61.20;;;58.53;;
16282;SDS011;8249;48.708;9.030;2023-06-04T10:52:38;56.35;;;53.95;;
16282;SDS011;8249;48.708;9.030;2023-06-04T10:55:06;54.75;;;52.28;;
16282;SDS011;8249;48.708;9.030;2023-06-04T10:57:34;48.58;;;46.47;;
16282;SDS011;8249;48.708;9.030;2023-06-04T11:00:01;51.22;;;49.10;;
16282;SDS011;8249;48.708;9.030;2023-06-04T11:02:35;34.08;;;32.67;;
16282;SDS011;8249;48.708;9.030;2023-06-04T11:05:03;38.25;;;36.63;;
16282;SDS011;8249;48.708;9.030;2023-06-04T11:07:41;44.78;;;42.88;;
16282;SDS011;8249;48.708;9.030;2023-06-04T11:10:10;28.75;;;27.48;;
16282;SDS011;8249;48.708;9.030;2023-06-04T11:12:41;30.67;;;29.38;;
16282;SDS011;8249;48.708;9.030;2023-06-04T11:15:09;26.98;;;25.88;;
16282;SDS011;8249;48.708;9.030;2023-06-04T11:17:36;28.70;;;27.40;;
16282;SDS011;8249;48.708;9.030;2023-06-04T11:20:04;33.25;;;31.77;;
16282;SDS011;8249;48.708;9.030;2023-06-04T11:22:43;33.55;;;32.15;;
16282;SDS011;8249;48.708;9.030;2023-06-04T11:25:17;33.35;;;31.98;;
16282;SDS011;8249;48.708;9.030;2023-06-04T11:27:44;36.17;;;34.67;;
16282;SDS011;8249;48.708;9.030;2023-06-04T11:30:12;35.55;;;34.00;;
16282;SDS011;8249;48.708;9.030;2023-06-04T11:32:39;36.80;;;35.17;;
16282;SDS011;8249;48.708;9.030;2023-06-04T11:35:07;33.35;;;31.95;;
16282;SDS011;8249;48.708;9.030;2023-06-04T11:37:36;35.40;;;33.90;;
16282;SDS011;8249;48.708;9.030;2023-06-04T11:40:14;35.25;;;33.75;;
16282;SDS011;8249;48.708;9.030;2023-06-04T11:42:42;32.42;;;31.13;;
16282;SDS011;8249;48.708;9.030;2023-06-04T11:45:10;34.47;;;32.97;;
16282;SDS011;8249;48.708;9.030;2023-06-04T11:47:38;37.92;;;36.28;;
16282;SDS011;8249;48.708;9.030;2023-06-04T11:50:06;38.20;;;36.55;;
16282;SDS011;8249;48.708;9.030;2023-06-04T11:52:34;39.25;;;37.58;;
16282;SDS011;8249;48.708;9.030;2023-06-04T11:55:02;38.67;;;36.85;;
16282;SDS011;8249;48.708;9.030;2023-06-04T11:57:34;42.55;;;40.72;;
16282;SDS011;8249;48.708;9.030;2023-06-04T12:00:01;51.22;;;48.97;;
16282;SDS011;8249;48.708;9.030;2023-06-04T12:02:34;51.42;;;49.22;;
16282;SDS011;8249;48.708;9.030;2023-06-04T12:05:10;50.40;;;48.25;;
16282;SDS011;8249;48.708;9.030;2023-06-04T12:07:37;48.80;;;46.70;;
16282;SDS011;8249;48.708;9.030;2023-06-04T12:10:09;48.47;;;46.40;;
16282;SDS011;8249;48.708;9.030;2023-06-04T12:12:37;42.00;;;40.25;;
16282;SDS011;8249;48.708;9.030;2023-06-04T12:15:06;43.10;;;41.25;;
16282;SDS011;8249;48.708;9.030;2023-06-04T12:17:35;52.00;;;49.78;;
16282;SDS011;8249;48.708;9.030;2023-06-04T12:20:02;37.38;;;35.72;;
16282;SDS011;8249;48.708;9.030;2023-06-04T12:22:31;51.05;;;48.88;;
16282;SDS011;8249;48.708;9.030;2023-06-04T12:24:58;47.05;;;45.00;;
16282;SDS011;8249;48.708;9.030;2023-06-04T12:27:29;45.15;;;42.88;;
16282;SDS011;8249;48.708;9.030;2023-06-04T12:29:57;46.65;;;44.67;;
16282;SDS011;8249;48.708;9.030;2023-06-04T12:32:25;49.67;;;47.55;;
16282;SDS011;8249;48.708;9.030;2023-06-04T12:34:52;46.17;;;44.15;;
16282;SDS011;8249;48.708;9.030;2023-06-04T12:37:20;45.97;;;44.00;;
16282;SDS011;8249;48.708;9.030;2023-06-04T12:39:47;36.50;;;34.95;;
16282;SDS011;8249;48.708;9.030;2023-06-04T12:42:14;33.22;;;31.83;;
16282;SDS011;8249;48.708;9.030;2023-06-04T12:44:42;35.97;;;34.47;;
16282;SDS011;8249;48.708;9.030;2023-06-04T12:47:10;44.47;;;42.47;;
16282;SDS011;8249;48.708;9.030;2023-06-04T12:49:37;51.65;;;49.40;;
16282;SDS011;8249;48.708;9.030;2023-06-04T12:52:04;48.05;;;45.97;;
16282;SDS011;8249;48.708;9.030;2023-06-04T12:54:32;46.88;;;44.88;;
16282;SDS011;8249;48.708;9.030;2023-06-04T12:56:59;40.20;;;38.47;;
16282;SDS011;8249;48.708;9.030;2023-06-04T12:59:27;29.02;;;27.60;;
16282;SDS011;8249;48.708;9.030;2023-06-04T13:01:56;33.60;;;32.17;;
16282;SDS011;8249;48.708;9.030;2023-06-04T13:04:23;40.13;;;38.30;;
16282;SDS011;8249;48.708;9.030;2023-06-04T13:06:50;37.20;;;35.53;;
16282;SDS011;8249;48.708;9.030;2023-06-04T13:09:20;41.63;;;39.85;;
16282;SDS011;8249;48.708;9.030;2023-06-04T13:11:48;40.47;;;38.78;;
16282;SDS011;8249;48.708;9.030;2023-06-04T13:14:15;39.88;;;38.20;;
16282;SDS011;8249;48.708;9.030;2023-06-04T13:16:42;42.00;;;40.00;;
16282;SDS011;8249;48.708;9.030;2023-06-04T13:19:12;39.92;;;38.22;;
16282;SDS011;8249;48.708;9.030;2023-06-04T13:21:39;41.33;;;39.58;;
16282;SDS011;8249;48.708;9.030;2023-06-04T13:24:06;42.67;;;40.85;;
16282;SDS011;8249;48.708;9.030;2023-06-04T13:26:34;43.83;;;41.78;;
16282;SDS011;8249;48.708;9.030;2023-06-04T13:29:01;37.25;;;35.65;;
16282;SDS011;8249;48.708;9.030;2023-06-04T13:31:28;37.67;;;36.05;;
16282;SDS011;8249;48.708;9.030;2023-06-04T13:33:55;39.03;;;36.75;;
16282;SDS011;8249;48.708;9.030;2023-06-04T13:36:24;37.78;;;36.17;;
16282;SDS011;8249;48.708;9.030;2023-06-04T13:38:52;37.70;;;36.13;;
16282;SDS011;8249;48.708;9.030;2023-06-04T13:41:20;40.25;;;38.55;;
16282;SDS011;8249;48.708;9.030;2023-06-04T13:43:47;43.42;;;41.53;;
16282;SDS011;8249;48.708;9.030;2023-06-04T13:46:15;41.67;;;39.90;;
16282;SDS011;8249;48.708;9.030;2023-06-04T13:48:42;35.97;;;34.47;;
16282;SDS011;8249;48.708;9.030;2023-06-04T13:51:09;38.08;;;36.45;;
16282;SDS011;8249;48.708;9.030;2023-06-04T13:53:38;38.47;;;36.80;;
16282;SDS011;8249;48.708;9.030;2023-06-04T13:56:05;34.67;;;33.22;;
16282;SDS011;8249;48.708;9.030;2023-06-04T13:58:32;33.25;;;31.83;;
16282;SDS011;8249;48.708;9.030;2023-06-04T14:00:58;33.88;;;32.42;;
16282;SDS011;8249;48.708;9.030;2023-06-04T14:03:25;29.52;;;28.33;;
16282;SDS011;8249;48.708;9.030;2023-06-04T14:05:52;31.23;;;29.92;;
16282;SDS011;8249;48.708;9.030;2023-06-04T14:08:19;27.15;;;26.05;;
16282;SDS011;8249;48.708;9.030;2023-06-04T14:10:47;32.88;;;31.55;;
16282;SDS011;8249;48.708;9.030;2023-06-04T14:13:17;30.52;;;29.15;;
16282;SDS011;8249;48.708;9.030;2023-06-04T14:15:44;32.33;;;30.92;;
16282;SDS011;8249;48.708;9.030;2023-06-04T14:18:10;32.92;;;30.58;;
16282;SDS011;8249;48.708;9.030;2023-06-04T14:20:37;37.55;;;35.95;;
16282;SDS011;8249;48.708;9.030;2023-06-04T14:23:04;38.63;;;37.03;;
16282;SDS011;8249;48.708;9.030;2023-06-04T14:25:31;39.83;;;38.05;;
16282;SDS011;8249;48.708;9.030;2023-06-04T14:28:02;36.22;;;34.67;;
16282;SDS011;8249;48.708;9.030;2023-06-04T14:30:29;34.13;;;32.63;;